sensor_id;sensor_type;location;lat;lon;timestamp;temperature;humidity
43414;DHT22;29013;49.676;8.606;2022-09-06T00:01:50;21.0;72.9
43414;DHT22;29013;49.676;8.606;2022-09-06T00:07:17;20.9;73.9
43414;DHT22;29013;49.676;8.606;2022-09-06T00:12:43;20.8;74.9
43414;DHT22;29013;49.676;8.606;2022-09-06T00:18:11;20.7;75.0
43414;DHT22;29013;49.676;8.606;2022-09-06T00:23:35;20.7;75.9
43414;DHT22;29013;49.676;8.606;2022-09-06T00:29:03;20.7;76.4
43414;DHT22;29013;49.676;8.606;2022-09-06T00:34:25;20.7;77.7
43414;DHT22;29013;49.676;8.606;2022-09-06T00:39:47;20.6;77.8
43414;DHT22;29013;49.676;8.606;2022-09-06T00:45:15;20.6;78.7
43414;DHT22;29013;49.676;8.606;2022-09-06T00:50:37;20.6;78.8
43414;DHT22;29013;49.676;8.606;2022-09-06T00:56:02;20.6;79.0
43414;DHT22;29013;49.676;8.606;2022-09-06T01:01:30;20.5;79.3
43414;DHT22;29013;49.676;8.606;2022-09-06T01:06:59;20.5;79.3
43414;DHT22;29013;49.676;8.606;2022-09-06T01:12:30;20.5;79.1
43414;DHT22;29013;49.676;8.606;2022-09-06T01:17:57;20.5;80.1
43414;DHT22;29013;49.676;8.606;2022-09-06T01:29:14;20.4;80.6
43414;DHT22;29013;49.676;8.606;2022-09-06T01:34:42;20.4;83.0
43414;DHT22;29013;49.676;8.606;2022-09-06T01:40:09;20.3;82.9
43414;DHT22;29013;49.676;8.606;2022-09-06T01:45:38;20.0;85.0
43414;DHT22;29013;49.676;8.606;2022-09-06T01:51:11;19.9;86.5
43414;DHT22;29013;49.676;8.606;2022-09-06T01:56:38;20.0;86.4
43414;DHT22;29013;49.676;8.606;2022-09-06T02:02:01;20.0;87.1
43414;DHT22;29013;49.676;8.606;2022-09-06T02:07:26;20.1;86.8
43414;DHT22;29013;49.676;8.606;2022-09-06T02:12:54;20.1;88.3
43414;DHT22;29013;49.676;8.606;2022-09-06T02:18:18;20.1;90.1
43414;DHT22;29013;49.676;8.606;2022-09-06T02:23:44;20.3;90.4
43414;DHT22;29013;49.676;8.606;2022-09-06T02:29:09;20.4;90.2
43414;DHT22;29013;49.676;8.606;2022-09-06T02:34:34;20.6;90.2
43414;DHT22;29013;49.676;8.606;2022-09-06T02:39:59;20.6;90.1
43414;DHT22;29013;49.676;8.606;2022-09-06T02:45:27;20.7;91.0
43414;DHT22;29013;49.676;8.606;2022-09-06T02:50:53;20.7;90.6
43414;DHT22;29013;49.676;8.606;2022-09-06T02:56:19;20.9;91.0
43414;DHT22;29013;49.676;8.606;2022-09-06T03:01:47;20.9;90.8
43414;DHT22;29013;49.676;8.606;2022-09-06T03:07:13;20.9;90.9
43414;DHT22;29013;49.676;8.606;2022-09-06T03:12:38;21.0;91.9
43414;DHT22;29013;49.676;8.606;2022-09-06T03:18:05;20.9;92.5
43414;DHT22;29013;49.676;8.606;2022-09-06T03:23:31;20.9;94.2
43414;DHT22;29013;49.676;8.606;2022-09-06T03:28:58;20.7;95.4
43414;DHT22;29013;49.676;8.606;2022-09-06T03:34:27;20.5;96.9
43414;DHT22;29013;49.676;8.606;2022-09-06T03:39:54;20.5;97.2
43414;DHT22;29013;49.676;8.606;2022-09-06T03:45:20;20.5;97.4
43414;DHT22;29013;49.676;8.606;2022-09-06T03:50:46;20.3;98.2
43414;DHT22;29013;49.676;8.606;2022-09-06T03:56:11;20.2;99.1
43414;DHT22;29013;49.676;8.606;2022-09-06T04:01:38;20.3;99.4
43414;DHT22;29013;49.676;8.606;2022-09-06T04:07:05;20.1;99.9
43414;DHT22;29013;49.676;8.606;2022-09-06T04:12:33;20.0;99.9
43414;DHT22;29013;49.676;8.606;2022-09-06T04:17:58;20.2;99.9
43414;DHT22;29013;49.676;8.606;2022-09-06T04:23:25;20.1;99.9
43414;DHT22;29013;49.676;8.606;2022-09-06T04:28:52;20.1;99.9
43414;DHT22;29013;49.676;8.606;2022-09-06T04:34:18;20.1;99.9
43414;DHT22;29013;49.676;8.606;2022-09-06T04:39:43;20.1;99.9
43414;DHT22;29013;49.676;8.606;2022-09-06T04:45:12;20.1;99.9
43414;DHT22;29013;49.676;8.606;2022-09-06T04:50:34;20.1;99.9
43414;DHT22;29013;49.676;8.606;2022-09-06T04:56:01;20.1;99.9
43414;DHT22;29013;49.676;8.606;2022-09-06T05:01:27;20.0;99.9
43414;DHT22;29013;49.676;8.606;2022-09-06T05:07:02;19.9;99.9
43414;DHT22;29013;49.676;8.606;2022-09-06T05:12:22;19.9;99.9
43414;DHT22;29013;49.676;8.606;2022-09-06T05:17:48;19.7;99.9
43414;DHT22;29013;49.676;8.606;2022-09-06T05:23:15;19.7;99.9
43414;DHT22;29013;49.676;8.606;2022-09-06T05:28:37;19.6;99.9
43414;DHT22;29013;49.676;8.606;2022-09-06T05:34:02;19.3;99.9
43414;DHT22;29013;49.676;8.606;2022-09-06T05:39:30;19.3;99.9
43414;DHT22;29013;49.676;8.606;2022-09-06T05:44:56;19.3;99.9
43414;DHT22;29013;49.676;8.606;2022-09-06T05:50:21;19.5;99.9
43414;DHT22;29013;49.676;8.606;2022-09-06T05:55:45;19.5;99.9
43414;DHT22;29013;49.676;8.606;2022-09-06T06:01:12;19.6;99.9
43414;DHT22;29013;49.676;8.606;2022-09-06T06:06:30;19.7;99.9
43414;DHT22;29013;49.676;8.606;2022-09-06T06:11:51;19.7;99.9
43414;DHT22;29013;49.676;8.606;2022-09-06T06:17:14;19.9;99.9
43414;DHT22;29013;49.676;8.606;2022-09-06T06:22:35;20.0;99.9
43414;DHT22;29013;49.676;8.606;2022-09-06T06:27:57;20.1;99.9
43414;DHT22;29013;49.676;8.606;2022-09-06T06:33:20;20.4;99.8
43414;DHT22;29013;49.676;8.606;2022-09-06T06:38:44;20.5;99.8
43414;DHT22;29013;49.676;8.606;2022-09-06T06:44:05;20.6;99.8
43414;DHT22;29013;49.676;8.606;2022-09-06T06:49:27;20.7;99.1
43414;DHT22;29013;49.676;8.606;2022-09-06T06:54:49;20.8;99.3
43414;DHT22;29013;49.676;8.606;2022-09-06T07:00:14;21.1;98.5
43414;DHT22;29013;49.676;8.606;2022-09-06T07:05:35;21.4;97.9
43414;DHT22;29013;49.676;8.606;2022-09-06T07:10:58;21.6;98.8
43414;DHT22;29013;49.676;8.606;2022-09-06T07:16:21;21.8;97.5
43414;DHT22;29013;49.676;8.606;2022-09-06T07:21:42;22.0;96.8
43414;DHT22;29013;49.676;8.606;2022-09-06T07:27:05;22.1;96.9
43414;DHT22;29013;49.676;8.606;2022-09-06T07:32:27;22.4;97.2
43414;DHT22;29013;49.676;8.606;2022-09-06T07:37:58;22.5;95.2
43414;DHT22;29013;49.676;8.606;2022-09-06T07:43:19;22.5;95.2
43414;DHT22;29013;49.676;8.606;2022-09-06T07:48:42;22.6;94.8
43414;DHT22;29013;49.676;8.606;2022-09-06T07:55:08;22.6;95.6
43414;DHT22;29013;49.676;8.606;2022-09-06T08:00:27;23.4;94.6
43414;DHT22;29013;49.676;8.606;2022-09-06T08:05:55;23.4;94.1
43414;DHT22;29013;49.676;8.606;2022-09-06T08:11:23;23.4;93.0
43414;DHT22;29013;49.676;8.606;2022-09-06T08:16:47;23.5;92.7
43414;DHT22;29013;49.676;8.606;2022-09-06T08:22:14;23.3;93.2
43414;DHT22;29013;49.676;8.606;2022-09-06T08:27:42;23.5;94.5
43414;DHT22;29013;49.676;8.606;2022-09-06T08:33:06;24.2;93.7
43414;DHT22;29013;49.676;8.606;2022-09-06T08:38:34;24.4;91.4
43414;DHT22;29013;49.676;8.606;2022-09-06T08:44:03;24.7;90.8
43414;DHT22;29013;49.676;8.606;2022-09-06T08:49:30;24.8;90.2
43414;DHT22;29013;49.676;8.606;2022-09-06T08:54:56;25.0;90.2
43414;DHT22;29013;49.676;8.606;2022-09-06T09:00:17;25.2;89.1
43414;DHT22;29013;49.676;8.606;2022-09-06T09:05:40;25.4;87.2
43414;DHT22;29013;49.676;8.606;2022-09-06T09:11:03;25.8;87.9
43414;DHT22;29013;49.676;8.606;2022-09-06T09:16:24;26.2;84.8
43414;DHT22;29013;49.676;8.606;2022-09-06T09:21:46;26.2;83.0
43414;DHT22;29013;49.676;8.606;2022-09-06T09:27:09;26.5;83.8
43414;DHT22;29013;49.676;8.606;2022-09-06T09:32:33;26.9;82.5
43414;DHT22;29013;49.676;8.606;2022-09-06T09:38:00;27.3;79.0
43414;DHT22;29013;49.676;8.606;2022-09-06T09:43:23;27.6;79.4
43414;DHT22;29013;49.676;8.606;2022-09-06T09:49:06;27.7;74.9
43414;DHT22;29013;49.676;8.606;2022-09-06T09:54:34;28.1;74.1
43414;DHT22;29013;49.676;8.606;2022-09-06T09:59:54;28.1;73.3
43414;DHT22;29013;49.676;8.606;2022-09-06T10:05:22;28.4;73.2
43414;DHT22;29013;49.676;8.606;2022-09-06T10:10:49;28.5;73.5
43414;DHT22;29013;49.676;8.606;2022-09-06T10:16:19;28.6;69.1
43414;DHT22;29013;49.676;8.606;2022-09-06T10:21:43;28.6;69.7
43414;DHT22;29013;49.676;8.606;2022-09-06T10:27:08;28.7;69.7
43414;DHT22;29013;49.676;8.606;2022-09-06T10:32:45;28.7;68.6
43414;DHT22;29013;49.676;8.606;2022-09-06T10:38:22;28.8;67.6
43414;DHT22;29013;49.676;8.606;2022-09-06T10:43:48;28.9;68.1
43414;DHT22;29013;49.676;8.606;2022-09-06T10:49:09;29.2;68.5
43414;DHT22;29013;49.676;8.606;2022-09-06T10:54:34;29.3;66.2
43414;DHT22;29013;49.676;8.606;2022-09-06T11:00:03;29.3;65.6
43414;DHT22;29013;49.676;8.606;2022-09-06T11:05:29;29.3;66.1
43414;DHT22;29013;49.676;8.606;2022-09-06T11:10:55;29.2;65.8
43414;DHT22;29013;49.676;8.606;2022-09-06T11:16:23;29.5;65.9
43414;DHT22;29013;49.676;8.606;2022-09-06T11:22:10;29.9;64.7
43414;DHT22;29013;49.676;8.606;2022-09-06T11:27:37;30.1;63.9
43414;DHT22;29013;49.676;8.606;2022-09-06T11:33:14;29.9;63.7
43414;DHT22;29013;49.676;8.606;2022-09-06T11:38:40;30.0;62.7
43414;DHT22;29013;49.676;8.606;2022-09-06T11:44:06;30.2;62.1
43414;DHT22;29013;49.676;8.606;2022-09-06T11:49:39;30.6;61.0
43414;DHT22;29013;49.676;8.606;2022-09-06T11:55:00;30.6;60.4
43414;DHT22;29013;49.676;8.606;2022-09-06T12:00:25;30.7;59.7
43414;DHT22;29013;49.676;8.606;2022-09-06T12:06:14;31.1;59.2
43414;DHT22;29013;49.676;8.606;2022-09-06T12:11:42;31.4;57.9
43414;DHT22;29013;49.676;8.606;2022-09-06T12:17:28;31.4;58.6
43414;DHT22;29013;49.676;8.606;2022-09-06T12:22:55;31.6;58.2
43414;DHT22;29013;49.676;8.606;2022-09-06T12:28:41;31.4;57.9
43414;DHT22;29013;49.676;8.606;2022-09-06T12:34:11;31.4;56.4
43414;DHT22;29013;49.676;8.606;2022-09-06T12:39:36;31.4;57.0
43414;DHT22;29013;49.676;8.606;2022-09-06T12:45:06;31.3;56.7
43414;DHT22;29013;49.676;8.606;2022-09-06T12:50:28;31.1;55.7
43414;DHT22;29013;49.676;8.606;2022-09-06T12:55:56;31.0;56.0
43414;DHT22;29013;49.676;8.606;2022-09-06T13:01:13;31.4;55.0
43414;DHT22;29013;49.676;8.606;2022-09-06T13:06:37;31.5;54.3
43414;DHT22;29013;49.676;8.606;2022-09-06T13:11:58;31.5;55.9
43414;DHT22;29013;49.676;8.606;2022-09-06T13:17:25;31.1;56.5
43414;DHT22;29013;49.676;8.606;2022-09-06T13:22:47;30.9;56.1
43414;DHT22;29013;49.676;8.606;2022-09-06T13:28:09;31.4;55.1
43414;DHT22;29013;49.676;8.606;2022-09-06T13:33:31;31.4;54.8
43414;DHT22;29013;49.676;8.606;2022-09-06T13:38:53;31.6;55.4
43414;DHT22;29013;49.676;8.606;2022-09-06T13:44:28;31.7;55.9
43414;DHT22;29013;49.676;8.606;2022-09-06T13:49:51;31.8;55.7
43414;DHT22;29013;49.676;8.606;2022-09-06T13:55:15;31.5;56.9
43414;DHT22;29013;49.676;8.606;2022-09-06T14:00:35;31.5;55.8
43414;DHT22;29013;49.676;8.606;2022-09-06T14:05:57;31.5;55.3
43414;DHT22;29013;49.676;8.606;2022-09-06T14:11:19;31.6;55.9
43414;DHT22;29013;49.676;8.606;2022-09-06T14:16:44;31.4;56.2
43414;DHT22;29013;49.676;8.606;2022-09-06T14:22:09;31.1;55.8
43414;DHT22;29013;49.676;8.606;2022-09-06T14:27:31;30.9;56.4
43414;DHT22;29013;49.676;8.606;2022-09-06T14:32:54;30.7;56.2
43414;DHT22;29013;49.676;8.606;2022-09-06T14:38:18;30.5;55.6
43414;DHT22;29013;49.676;8.606;2022-09-06T14:43:48;30.5;56.1
43414;DHT22;29013;49.676;8.606;2022-09-06T14:49:16;30.5;55.9
43414;DHT22;29013;49.676;8.606;2022-09-06T14:54:44;30.6;55.7
43414;DHT22;29013;49.676;8.606;2022-09-06T15:00:15;30.7;54.0
43414;DHT22;29013;49.676;8.606;2022-09-06T15:05:37;30.7;53.9
43414;DHT22;29013;49.676;8.606;2022-09-06T15:11:04;30.7;53.0
43414;DHT22;29013;49.676;8.606;2022-09-06T15:16:28;30.7;52.0
43414;DHT22;29013;49.676;8.606;2022-09-06T15:21:56;30.5;52.9
43414;DHT22;29013;49.676;8.606;2022-09-06T15:27:23;30.4;52.7
43414;DHT22;29013;49.676;8.606;2022-09-06T15:32:48;30.3;51.5
43414;DHT22;29013;49.676;8.606;2022-09-06T15:38:13;30.3;51.0
43414;DHT22;29013;49.676;8.606;2022-09-06T15:43:39;30.1;51.0
43414;DHT22;29013;49.676;8.606;2022-09-06T15:49:06;30.0;52.8
43414;DHT22;29013;49.676;8.606;2022-09-06T15:54:31;29.9;53.8
43414;DHT22;29013;49.676;8.606;2022-09-06T15:59:53;29.8;54.8
43414;DHT22;29013;49.676;8.606;2022-09-06T16:05:18;29.6;55.6
43414;DHT22;29013;49.676;8.606;2022-09-06T16:10:46;29.6;57.5
43414;DHT22;29013;49.676;8.606;2022-09-06T16:16:14;29.5;57.5
43414;DHT22;29013;49.676;8.606;2022-09-06T16:21:37;29.3;57.3
43414;DHT22;29013;49.676;8.606;2022-09-06T16:27:03;29.3;57.5
43414;DHT22;29013;49.676;8.606;2022-09-06T16:32:30;29.2;58.4
43414;DHT22;29013;49.676;8.606;2022-09-06T16:37:57;29.2;57.6
43414;DHT22;29013;49.676;8.606;2022-09-06T16:43:24;29.1;58.1
43414;DHT22;29013;49.676;8.606;2022-09-06T16:48:54;29.1;57.5
43414;DHT22;29013;49.676;8.606;2022-09-06T16:54:15;29.1;57.8
43414;DHT22;29013;49.676;8.606;2022-09-06T16:59:41;29.0;57.6
43414;DHT22;29013;49.676;8.606;2022-09-06T17:05:10;29.0;58.3
43414;DHT22;29013;49.676;8.606;2022-09-06T17:10:32;29.0;60.3
43414;DHT22;29013;49.676;8.606;2022-09-06T17:16:01;28.8;60.0
43414;DHT22;29013;49.676;8.606;2022-09-06T17:21:26;28.6;63.4
43414;DHT22;29013;49.676;8.606;2022-09-06T17:26:51;28.3;63.7
43414;DHT22;29013;49.676;8.606;2022-09-06T17:32:19;28.1;62.9
43414;DHT22;29013;49.676;8.606;2022-09-06T17:37:46;27.4;63.7
43414;DHT22;29013;49.676;8.606;2022-09-06T17:43:11;27.0;64.2
43414;DHT22;29013;49.676;8.606;2022-09-06T17:48:33;26.6;64.3
43414;DHT22;29013;49.676;8.606;2022-09-06T17:53:57;26.0;65.7
43414;DHT22;29013;49.676;8.606;2022-09-06T17:59:24;25.5;67.1
43414;DHT22;29013;49.676;8.606;2022-09-06T18:04:52;25.1;68.4
43414;DHT22;29013;49.676;8.606;2022-09-06T18:10:18;25.0;68.5
43414;DHT22;29013;49.676;8.606;2022-09-06T18:15:42;24.8;68.5
43414;DHT22;29013;49.676;8.606;2022-09-06T18:21:09;24.7;67.2
43414;DHT22;29013;49.676;8.606;2022-09-06T18:26:37;24.6;66.8
43414;DHT22;29013;49.676;8.606;2022-09-06T18:31:59;24.8;65.8
43414;DHT22;29013;49.676;8.606;2022-09-06T18:37:26;24.8;65.7
43414;DHT22;29013;49.676;8.606;2022-09-06T18:42:53;24.7;65.9
43414;DHT22;29013;49.676;8.606;2022-09-06T18:48:18;24.6;66.1
43414;DHT22;29013;49.676;8.606;2022-09-06T18:53:44;24.5;66.2
43414;DHT22;29013;49.676;8.606;2022-09-06T18:59:09;24.6;66.2
43414;DHT22;29013;49.676;8.606;2022-09-06T19:04:35;24.6;66.2
43414;DHT22;29013;49.676;8.606;2022-09-06T19:10:03;24.5;66.5
43414;DHT22;29013;49.676;8.606;2022-09-06T19:15:27;24.4;66.8
43414;DHT22;29013;49.676;8.606;2022-09-06T19:20:59;24.4;67.1
43414;DHT22;29013;49.676;8.606;2022-09-06T19:26:22;24.3;66.5
43414;DHT22;29013;49.676;8.606;2022-09-06T19:31:46;24.3;66.8
43414;DHT22;29013;49.676;8.606;2022-09-06T19:37:11;24.2;67.0
43414;DHT22;29013;49.676;8.606;2022-09-06T19:42:38;24.2;66.9
43414;DHT22;29013;49.676;8.606;2022-09-06T19:48:02;24.2;66.6
43414;DHT22;29013;49.676;8.606;2022-09-06T19:53:27;24.1;67.6
43414;DHT22;29013;49.676;8.606;2022-09-06T19:58:56;23.8;67.2
43414;DHT22;29013;49.676;8.606;2022-09-06T20:04:17;23.8;67.3
43414;DHT22;29013;49.676;8.606;2022-09-06T20:09:44;23.8;66.5
43414;DHT22;29013;49.676;8.606;2022-09-06T20:15:13;23.8;65.8
43414;DHT22;29013;49.676;8.606;2022-09-06T20:20:40;23.8;65.7
43414;DHT22;29013;49.676;8.606;2022-09-06T20:26:07;23.8;65.6
43414;DHT22;29013;49.676;8.606;2022-09-06T20:31:34;23.8;64.8
43414;DHT22;29013;49.676;8.606;2022-09-06T20:37:01;23.8;65.5
43414;DHT22;29013;49.676;8.606;2022-09-06T20:42:27;23.8;64.8
43414;DHT22;29013;49.676;8.606;2022-09-06T20:47:52;23.7;65.2
43414;DHT22;29013;49.676;8.606;2022-09-06T20:53:19;23.7;65.1
43414;DHT22;29013;49.676;8.606;2022-09-06T20:58:47;23.7;65.5
43414;DHT22;29013;49.676;8.606;2022-09-06T21:04:11;23.6;66.7
43414;DHT22;29013;49.676;8.606;2022-09-06T21:09:36;23.6;66.4
43414;DHT22;29013;49.676;8.606;2022-09-06T21:15:05;23.5;66.6
43414;DHT22;29013;49.676;8.606;2022-09-06T21:20:28;23.4;66.9
43414;DHT22;29013;49.676;8.606;2022-09-06T21:25:56;23.3;67.2
43414;DHT22;29013;49.676;8.606;2022-09-06T21:31:20;23.3;67.5
43414;DHT22;29013;49.676;8.606;2022-09-06T21:36:47;23.2;67.7
43414;DHT22;29013;49.676;8.606;2022-09-06T21:42:12;23.1;67.7
43414;DHT22;29013;49.676;8.606;2022-09-06T21:47:35;23.1;68.8
43414;DHT22;29013;49.676;8.606;2022-09-06T21:53:00;23.0;69.6
43414;DHT22;29013;49.676;8.606;2022-09-06T21:58:27;22.9;69.8
43414;DHT22;29013;49.676;8.606;2022-09-06T22:03:53;22.7;71.0
43414;DHT22;29013;49.676;8.606;2022-09-06T22:09:17;22.6;71.0
43414;DHT22;29013;49.676;8.606;2022-09-06T22:14:44;22.7;69.7
43414;DHT22;29013;49.676;8.606;2022-09-06T22:20:12;22.8;70.3
43414;DHT22;29013;49.676;8.606;2022-09-06T22:25:37;22.8;70.7
43414;DHT22;29013;49.676;8.606;2022-09-06T22:31:02;22.7;71.4
43414;DHT22;29013;49.676;8.606;2022-09-06T22:36:27;22.6;72.0
43414;DHT22;29013;49.676;8.606;2022-09-06T22:41:51;22.4;73.1
43414;DHT22;29013;49.676;8.606;2022-09-06T22:47:17;22.3;73.3
43414;DHT22;29013;49.676;8.606;2022-09-06T22:52:42;22.3;74.8
43414;DHT22;29013;49.676;8.606;2022-09-06T22:58:08;22.2;74.4
43414;DHT22;29013;49.676;8.606;2022-09-06T23:03:29;21.9;75.2
43414;DHT22;29013;49.676;8.606;2022-09-06T23:08:55;21.7;78.5
43414;DHT22;29013;49.676;8.606;2022-09-06T23:14:21;21.6;78.6
43414;DHT22;29013;49.676;8.606;2022-09-06T23:19:48;21.4;79.6
43414;DHT22;29013;49.676;8.606;2022-09-06T23:25:16;21.5;79.9
43414;DHT22;29013;49.676;8.606;2022-09-06T23:30:43;21.4;80.2
43414;DHT22;29013;49.676;8.606;2022-09-06T23:36:11;21.3;81.2
43414;DHT22;29013;49.676;8.606;2022-09-06T23:41:34;21.4;81.6
43414;DHT22;29013;49.676;8.606;2022-09-06T23:46:59;21.3;82.9
43414;DHT22;29013;49.676;8.606;2022-09-06T23:52:23;21.3;84.1
43414;DHT22;29013;49.676;8.606;2022-09-06T23:57:51;21.2;84.8
